Time;durP1;ratioP1;P1;durP2;ratioP2;P2;SDS_P1;SDS_P2;PMS_P1;PMS_P2;Temp;Humidity;BMP_temperature;BMP_pressure;BME280_temperature;BME280_humidity;BME280_pressure;Samples;Min_cycle;Max_cycle;Signal;HPM_P1;HPM_P2
2022/04/11 00:01:35;;;;;;;8.25;4.50;;;6.30;99.90;;;;;;5094201;28;20168;-70
2022/04/11 00:04:02;;;;;;;6.78;4.43;;;6.30;99.90;;;;;;5094071;28;20272;-70
2022/04/11 00:06:28;;;;;;;7.57;4.38;;;6.30;99.90;;;;;;5094070;28;20557;-70
2022/04/11 00:08:54;;;;;;;5.35;3.80;;;6.30;99.90;;;;;;5109788;28;20212;-71
2022/04/11 00:11:21;;;;;;;7.28;3.88;;;6.30;99.90;;;;;;5109702;28;20204;-70
2022/04/11 00:13:48;;;;;;;6.13;4.30;;;6.20;99.90;;;;;;5109777;28;20240;-71
2022/04/11 00:16:14;;;;;;;4.65;3.33;;;6.20;99.90;;;;;;5102591;28;20188;-70
2022/04/11 00:18:53;;;;;;;6.93;3.80;;;6.20;99.90;;;;;;5130194;27;20203;-70
2022/04/11 00:21:20;;;;;;;5.63;3.25;;;6.20;99.90;;;;;;5130160;27;20321;-70
2022/04/11 00:23:46;;;;;;;5.32;3.30;;;6.20;99.90;;;;;;5130288;27;20585;-70
2022/04/11 00:26:12;;;;;;;4.38;3.10;;;6.10;99.90;;;;;;5130067;27;20199;-70
2022/04/11 00:28:39;;;;;;;5.50;3.20;;;6.10;99.90;;;;;;5130188;27;20180;-70
2022/04/11 00:31:05;;;;;;;4.13;3.55;;;6.10;99.90;;;;;;5112984;28;20195;-71
2022/04/11 00:33:31;;;;;;;8.90;3.67;;;6.10;99.90;;;;;;5113792;28;20238;-70
2022/04/11 00:35:58;;;;;;;5.00;3.73;;;6.10;99.90;;;;;;5130411;28;20191;-70
2022/04/11 00:38:25;;;;;;;3.88;3.45;;;6.10;99.90;;;;;;5129983;28;20636;-70
2022/04/11 00:40:51;;;;;;;5.07;3.95;;;6.10;99.90;;;;;;5129868;28;20296;-70
2022/04/11 00:43:38;;;;;;;3.97;3.60;;;6.00;99.90;;;;;;5129996;28;20218;-70
2022/04/11 00:46:05;;;;;;;3.90;3.20;;;6.00;99.90;;;;;;5129779;28;20447;-70
2022/04/11 00:48:31;;;;;;;7.50;3.80;;;6.00;99.90;;;;;;5129842;28;20203;-70
2022/04/11 00:51:04;;;;;;;5.13;3.83;;;5.90;99.90;;;;;;5130009;28;20707;-70
2022/04/11 00:53:34;;;;;;;5.30;3.80;;;5.90;99.90;;;;;;5129850;28;20782;-71
2022/04/11 00:56:02;;;;;;;5.72;3.55;;;5.90;99.90;;;;;;5131753;27;20200;-70
2022/04/11 00:58:34;;;;;;;5.80;3.90;;;5.80;99.90;;;;;;5134009;27;20179;-70
2022/04/11 01:01:04;;;;;;;6.78;3.78;;;5.80;99.90;;;;;;5133948;27;20259;-71
2022/04/11 01:03:32;;;;;;;6.70;4.20;;;5.80;99.90;;;;;;5134548;27;20624;-70
2022/04/11 01:05:59;;;;;;;4.50;3.53;;;5.80;99.90;;;;;;5133765;27;20203;-70
2022/04/11 01:08:30;;;;;;;3.58;3.28;;;5.70;99.90;;;;;;5134103;27;20184;-71
2022/04/11 01:11:00;;;;;;;3.78;3.33;;;5.70;99.90;;;;;;5117914;28;20237;-71
2022/04/11 01:13:27;;;;;;;5.43;3.13;;;5.70;99.90;;;;;;5133553;27;20215;-70
2022/04/11 01:16:04;;;;;;;5.75;3.65;;;5.60;99.90;;;;;;5128102;27;20669;-70
2022/04/11 01:18:46;;;;;;;4.80;4.18;;;5.60;99.90;;;;;;5113237;28;20279;-70
2022/04/11 01:21:13;;;;;;;5.85;3.50;;;5.60;99.90;;;;;;5096545;28;20192;-70
2022/04/11 01:23:39;;;;;;;5.50;3.47;;;5.50;99.90;;;;;;5113131;28;20180;-70
2022/04/11 01:26:11;;;;;;;4.90;3.30;;;5.50;99.90;;;;;;5112885;28;20245;-71
2022/04/11 01:28:38;;;;;;;6.05;4.25;;;5.40;99.90;;;;;;5113014;28;20333;-70
2022/04/11 01:31:04;;;;;;;4.50;3.58;;;5.40;99.90;;;;;;5112858;28;20713;-70
2022/04/11 01:33:30;;;;;;;4.13;3.65;;;5.30;99.90;;;;;;5112709;28;20236;-70
2022/04/11 01:35:58;;;;;;;4.90;3.47;;;5.30;99.90;;;;;;5112892;28;20289;-70
2022/04/11 01:38:24;;;;;;;7.88;4.50;;;5.30;99.90;;;;;;5097113;28;20183;-71
2022/04/11 01:40:55;;;;;;;5.80;3.38;;;5.20;99.90;;;;;;5112573;28;20195;-70
2022/04/11 01:43:23;;;;;;;5.07;4.13;;;5.20;99.90;;;;;;5112808;28;20187;-70
2022/04/11 01:45:53;;;;;;;9.65;4.07;;;5.10;99.90;;;;;;5112667;28;20192;-70
2022/04/11 01:48:21;;;;;;;5.03;3.58;;;5.10;99.90;;;;;;5112613;28;20203;-70
2022/04/11 01:50:50;;;;;;;5.17;3.60;;;5.10;99.90;;;;;;5112597;28;20197;-70
2022/04/11 01:53:19;;;;;;;4.60;3.40;;;5.00;99.90;;;;;;5112861;28;20908;-70
2022/04/11 01:55:48;;;;;;;6.43;3.70;;;5.00;99.90;;;;;;5112460;28;20291;-70
2022/04/11 01:58:15;;;;;;;8.07;3.97;;;5.00;99.90;;;;;;5112257;28;20188;-70
2022/04/11 02:00:42;;;;;;;6.00;4.30;;;5.00;99.90;;;;;;5112273;28;20277;-70
2022/04/11 02:03:09;;;;;;;4.55;3.15;;;5.00;99.90;;;;;;5112358;28;20204;-70
2022/04/11 02:05:35;;;;;;;4.60;3.80;;;5.00;99.90;;;;;;5112127;28;20691;-70
2022/04/11 02:08:03;;;;;;;4.15;3.50;;;5.00;99.90;;;;;;5111948;28;20585;-70
2022/04/11 02:10:29;;;;;;;6.10;3.78;;;4.90;99.90;;;;;;5112272;28;20200;-70
2022/04/11 02:12:56;;;;;;;3.53;2.92;;;4.90;99.90;;;;;;5111935;28;20176;-70
2022/04/11 02:15:25;;;;;;;6.30;3.95;;;4.90;99.90;;;;;;5113287;28;20216;-71
2022/04/11 02:17:51;;;;;;;6.35;3.30;;;4.90;99.90;;;;;;5132310;27;20175;-70
2022/04/11 02:20:20;;;;;;;5.17;3.30;;;4.90;99.90;;;;;;5132316;27;20195;-70
2022/04/11 02:22:51;;;;;;;4.97;3.53;;;4.90;99.90;;;;;;5132515;27;20957;-70
2022/04/11 02:25:22;;;;;;;6.45;3.30;;;4.80;99.90;;;;;;5132338;27;20196;-70
2022/04/11 02:27:57;;;;;;;6.57;5.43;;;4.80;99.90;;;;;;5132252;27;20271;-70
2022/04/11 02:30:25;;;;;;;6.55;4.00;;;4.80;99.90;;;;;;5132264;27;20571;-70
2022/04/11 02:32:52;;;;;;;4.25;3.40;;;4.80;99.90;;;;;;5132210;27;20183;-70
2022/04/11 02:35:19;;;;;;;5.75;3.28;;;4.70;99.90;;;;;;5132289;27;20226;-70
2022/04/11 02:37:51;;;;;;;5.07;3.65;;;4.70;99.90;;;;;;5131926;27;20183;-70
2022/04/11 02:40:17;;;;;;;5.97;3.88;;;4.70;99.90;;;;;;5116378;28;20196;-70
2022/04/11 02:42:45;;;;;;;4.50;3.28;;;4.60;99.90;;;;;;5114706;28;20167;-70
2022/04/11 02:45:12;;;;;;;5.72;4.63;;;4.60;99.90;;;;;;5131871;27;20207;-70
2022/04/11 02:47:39;;;;;;;4.68;3.72;;;4.60;99.90;;;;;;5131744;27;20207;-70
2022/04/11 02:50:07;;;;;;;5.35;3.67;;;4.60;99.90;;;;;;5131957;27;20204;-70
2022/04/11 02:52:34;;;;;;;4.80;4.10;;;4.50;99.90;;;;;;5131712;27;20681;-70
2022/04/11 02:55:01;;;;;;;5.88;3.85;;;4.50;99.90;;;;;;5131742;27;20684;-70
2022/04/11 02:57:30;;;;;;;9.00;4.30;;;4.50;99.90;;;;;;5131620;27;20172;-70
2022/04/11 02:59:59;;;;;;;8.32;4.30;;;4.50;99.90;;;;;;5131503;27;20203;-70
2022/04/11 03:02:25;;;;;;;5.25;3.95;;;4.50;99.90;;;;;;5131621;27;20180;-70
2022/04/11 03:04:54;;;;;;;9.15;4.78;;;4.50;99.90;;;;;;5131355;27;20203;-70
2022/04/11 03:07:20;;;;;;;8.77;4.78;;;4.50;99.90;;;;;;5131825;27;20171;-70
2022/04/11 03:09:47;;;;;;;7.07;3.60;;;4.40;99.90;;;;;;5131592;27;20675;-70
2022/04/11 03:12:15;;;;;;;9.80;3.92;;;4.40;99.90;;;;;;5131427;27;20282;-70
2022/04/11 03:14:41;;;;;;;6.10;4.53;;;4.40;99.90;;;;;;5131241;27;20708;-70
2022/04/11 03:17:07;;;;;;;5.93;4.55;;;4.40;99.90;;;;;;5114806;27;20189;-70
2022/04/11 03:19:39;;;;;;;5.00;3.33;;;4.40;99.90;;;;;;5110207;28;20254;-72
2022/04/11 03:22:08;;;;;;;5.55;3.65;;;4.30;99.90;;;;;;5110909;28;20584;-69
2022/04/11 03:24:34;;;;;;;12.35;5.35;;;4.30;99.90;;;;;;5110398;28;20199;-70
2022/04/11 03:27:01;;;;;;;7.22;3.33;;;4.30;99.90;;;;;;5110745;28;20180;-70
2022/04/11 03:29:27;;;;;;;6.05;4.00;;;4.30;99.90;;;;;;5095380;28;20193;-70
2022/04/11 03:31:53;;;;;;;5.72;3.30;;;4.30;99.90;;;;;;5110668;28;20181;-70
2022/04/11 03:34:20;;;;;;;8.37;4.10;;;4.30;99.90;;;;;;5110048;28;20228;-70
2022/04/11 03:36:47;;;;;;;6.32;4.35;;;4.30;99.90;;;;;;5110419;28;20397;-70
2022/04/11 03:39:14;;;;;;;7.28;3.97;;;4.30;99.90;;;;;;5110596;28;20205;-71
2022/04/11 03:41:43;;;;;;;8.13;5.47;;;4.40;99.90;;;;;;5108981;28;20231;-70
2022/04/11 03:44:10;;;;;;;6.38;3.63;;;4.40;99.90;;;;;;5091471;28;20639;-70
2022/04/11 03:46:37;;;;;;;6.00;4.53;;;4.40;99.90;;;;;;5092289;28;20500;-70
2022/04/11 03:49:04;;;;;;;7.10;3.28;;;4.40;99.90;;;;;;5093459;28;20189;-70
2022/04/11 03:51:30;;;;;;;7.10;4.13;;;4.40;99.90;;;;;;5093091;28;20172;-70
2022/04/11 03:54:05;;;;;;;7.55;3.88;;;4.40;99.90;;;;;;5092146;28;20579;-71
2022/04/11 03:56:34;;;;;;;4.55;3.13;;;4.40;99.90;;;;;;5092438;28;20630;-70
2022/04/11 03:59:00;;;;;;;7.93;3.70;;;4.40;99.90;;;;;;5092644;28;20747;-70
2022/04/11 04:01:27;;;;;;;7.03;4.38;;;4.40;99.90;;;;;;5093976;28;20176;-70
2022/04/11 04:03:54;;;;;;;8.27;4.57;;;4.40;99.90;;;;;;5092564;28;20188;-72
2022/04/11 04:06:22;;;;;;;7.50;3.75;;;4.40;99.90;;;;;;5092750;28;20574;-70
2022/04/11 04:11:23;;;;;;;6.65;3.10;;;4.40;99.90;;;;;;5101695;22;20262;-70
2022/04/11 04:13:49;;;;;;;4.77;4.30;;;4.40;99.90;;;;;;5075861;28;20373;-70
2022/04/11 04:16:16;;;;;;;5.22;4.10;;;4.30;99.90;;;;;;5075665;28;20464;-70
2022/04/11 04:18:43;;;;;;;8.20;4.78;;;4.30;99.90;;;;;;5075982;28;20172;-70
2022/04/11 04:21:10;;;;;;;6.90;4.40;;;4.30;99.90;;;;;;5075785;28;20216;-70
2022/04/11 04:23:36;;;;;;;7.50;4.05;;;4.30;99.90;;;;;;5075753;28;20259;-70
2022/04/11 04:26:04;;;;;;;6.60;4.37;;;4.40;99.90;;;;;;5094012;28;20291;-70
2022/04/11 04:28:35;;;;;;;9.75;4.95;;;4.50;99.90;;;;;;5074115;28;20466;-70
2022/04/11 04:31:05;;;;;;;8.60;4.80;;;4.60;99.90;;;;;;5075819;28;20609;-70
2022/04/11 04:33:32;;;;;;;6.65;4.57;;;4.80;99.90;;;;;;5075021;28;20645;-70
2022/04/11 04:35:57;;;;;;;7.60;3.75;;;4.90;99.90;;;;;;5075571;28;20257;-70
2022/04/11 04:38:25;;;;;;;7.53;4.30;;;5.00;99.90;;;;;;5075842;28;20660;-70
2022/04/11 04:40:51;;;;;;;12.18;6.15;;;5.20;99.90;;;;;;5075425;28;20457;-70
2022/04/11 04:43:18;;;;;;;15.20;5.55;;;5.20;99.90;;;;;;5075407;28;20333;-69
2022/04/11 04:45:45;;;;;;;9.18;6.25;;;5.20;99.90;;;;;;5075137;28;20234;-70
2022/04/11 04:48:11;;;;;;;10.05;7.28;;;5.20;99.90;;;;;;5075446;28;20524;-70
2022/04/11 04:50:38;;;;;;;9.57;7.03;;;5.20;99.90;;;;;;5074543;28;20207;-70
2022/04/11 04:53:04;;;;;;;9.48;5.40;;;5.10;99.90;;;;;;5075388;28;20418;-70
2022/04/11 04:55:33;;;;;;;7.90;5.43;;;5.10;99.90;;;;;;5074638;28;20231;-69
2022/04/11 04:58:00;;;;;;;6.47;4.22;;;5.10;99.90;;;;;;5075457;28;20176;-70
2022/04/11 05:00:26;;;;;;;8.75;5.28;;;5.20;99.90;;;;;;5075541;28;20211;-70
2022/04/11 05:03:09;;;;;;;7.87;4.33;;;5.20;99.90;;;;;;5075304;28;20234;-71
2022/04/11 05:05:37;;;;;;;6.10;3.78;;;5.20;99.90;;;;;;5074499;28;20295;-72
2022/04/11 05:08:03;;;;;;;6.47;4.70;;;5.30;99.90;;;;;;5090268;28;20216;-72
2022/04/11 05:10:29;;;;;;;6.30;4.20;;;5.30;99.90;;;;;;5058154;28;20233;-72
2022/04/11 05:12:55;;;;;;;4.85;3.58;;;5.30;99.90;;;;;;5044625;28;20186;-72
2022/04/11 05:15:25;;;;;;;7.03;4.17;;;5.30;99.90;;;;;;5048650;28;20232;-71
2022/04/11 05:17:56;;;;;;;6.13;3.95;;;5.30;99.90;;;;;;5048739;28;20810;-71
2022/04/11 05:20:23;;;;;;;6.60;4.85;;;5.40;99.90;;;;;;5061561;28;20234;-72
2022/04/11 05:22:49;;;;;;;4.53;3.22;;;5.40;99.90;;;;;;5047612;28;20178;-72
2022/04/11 05:25:15;;;;;;;8.90;5.50;;;5.50;99.90;;;;;;5048723;28;20267;-71
2022/04/11 05:27:41;;;;;;;11.07;4.78;;;5.50;99.90;;;;;;5050346;28;20186;-72
2022/04/11 05:30:14;;;;;;;4.93;3.63;;;5.60;99.90;;;;;;5049799;28;20259;-72
2022/04/11 05:32:47;;;;;;;9.02;3.90;;;5.60;99.90;;;;;;5050077;28;20580;-71
2022/04/11 05:35:13;;;;;;;7.35;4.10;;;5.70;99.90;;;;;;5047959;28;20786;-72
2022/04/11 05:37:40;;;;;;;5.80;3.60;;;5.80;99.90;;;;;;5048284;28;20181;-72
2022/04/11 05:40:09;;;;;;;3.85;2.67;;;5.80;99.90;;;;;;5048755;28;20318;-71
2022/04/11 05:42:57;;;;;;;4.00;3.35;;;5.90;99.90;;;;;;5050620;28;20176;-71
2022/04/11 05:45:31;;;;;;;6.97;3.42;;;6.00;99.90;;;;;;5047278;28;20225;-72
2022/04/11 05:48:05;;;;;;;5.70;3.78;;;6.00;99.90;;;;;;5051729;28;20182;-72
2022/04/11 05:50:40;;;;;;;9.38;3.85;;;6.10;99.90;;;;;;5046879;28;20213;-71
2022/04/11 05:53:13;;;;;;;5.88;2.90;;;6.10;99.90;;;;;;5049960;28;20545;-71
2022/04/11 05:55:48;;;;;;;4.65;3.97;;;6.20;99.90;;;;;;5051946;28;20218;-71
2022/04/11 05:58:19;;;;;;;8.13;4.07;;;6.20;99.90;;;;;;5050691;28;20173;-72
2022/04/11 06:00:46;;;;;;;11.82;5.28;;;6.30;99.90;;;;;;5051429;28;20225;-72
2022/04/11 06:03:28;;;;;;;6.85;4.40;;;6.40;99.90;;;;;;5051330;28;20650;-72
2022/04/11 06:05:54;;;;;;;4.45;3.47;;;6.50;99.90;;;;;;5051939;28;20241;-72
2022/04/11 06:08:21;;;;;;;8.55;4.13;;;6.50;99.90;;;;;;5052035;28;20209;-71
2022/04/11 06:10:53;;;;;;;6.50;4.20;;;6.60;99.90;;;;;;5050144;28;20263;-71
2022/04/11 06:13:21;;;;;;;5.43;3.38;;;6.70;99.90;;;;;;5048767;28;20174;-72
2022/04/11 06:16:01;;;;;;;6.28;3.90;;;6.70;99.90;;;;;;5047161;28;20208;-72
2022/04/11 06:18:27;;;;;;;6.63;3.50;;;6.80;99.90;;;;;;5045697;28;20188;-71
2022/04/11 06:20:55;;;;;;;6.95;3.88;;;6.90;99.90;;;;;;5045203;28;20297;-72
2022/04/11 06:23:25;;;;;;;5.55;3.65;;;6.90;99.90;;;;;;5048673;28;20273;-71
2022/04/11 06:26:10;;;;;;;5.10;3.55;;;7.00;99.90;;;;;;5049367;28;20291;-72
2022/04/11 06:28:44;;;;;;;6.63;4.22;;;7.10;99.90;;;;;;5049029;28;20651;-73
2022/04/11 06:31:25;;;;;;;7.03;4.13;;;7.20;99.90;;;;;;5048868;28;20233;-76
2022/04/11 06:34:09;;;;;;;8.02;4.13;;;7.20;99.90;;;;;;5046808;28;20309;-76
2022/04/11 06:36:37;;;;;;;5.63;3.90;;;7.30;99.90;;;;;;5037201;28;20276;-76
2022/04/11 06:39:07;;;;;;;6.15;4.10;;;7.40;99.90;;;;;;5049897;28;20673;-76
2022/04/11 06:41:44;;;;;;;7.50;3.80;;;7.50;99.90;;;;;;5049964;28;20226;-76
2022/04/11 06:44:14;;;;;;;9.18;4.55;;;7.60;99.90;;;;;;5046528;28;20316;-77
2022/04/11 06:46:45;;;;;;;8.43;4.07;;;7.70;99.90;;;;;;5049881;28;20666;-76
2022/04/11 06:49:15;;;;;;;4.85;3.92;;;7.80;99.90;;;;;;5049526;28;20231;-73
2022/04/11 06:51:41;;;;;;;6.28;3.90;;;7.90;99.90;;;;;;5048503;28;20607;-73
2022/04/11 06:54:08;;;;;;;8.98;4.20;;;8.00;99.90;;;;;;5050361;28;20729;-73
2022/04/11 06:56:34;;;;;;;4.15;3.75;;;8.10;99.90;;;;;;5051939;28;20181;-77
2022/04/11 06:59:00;;;;;;;5.60;3.55;;;8.20;99.90;;;;;;5052570;28;20185;-73
2022/04/11 07:01:28;;;;;;;5.68;3.78;;;8.30;99.90;;;;;;5048922;28;20532;-73
2022/04/11 07:03:57;;;;;;;6.63;4.20;;;8.40;99.90;;;;;;5052107;28;20190;-73
2022/04/11 07:06:23;;;;;;;5.03;3.63;;;8.50;99.90;;;;;;5052036;28;20289;-76
2022/04/11 07:08:55;;;;;;;12.80;3.40;;;8.50;99.90;;;;;;5049388;28;20279;-73
2022/04/11 07:11:24;;;;;;;4.97;3.63;;;8.60;99.90;;;;;;5071596;28;20480;-73
2022/04/11 07:13:55;;;;;;;6.22;4.47;;;8.80;99.90;;;;;;5068566;28;20205;-77
2022/04/11 07:16:24;;;;;;;4.55;3.15;;;8.90;99.90;;;;;;5070645;28;20181;-73
2022/04/11 07:18:53;;;;;;;6.90;4.47;;;9.00;99.90;;;;;;5068786;28;20193;-73
2022/04/11 07:21:27;;;;;;;4.55;3.50;;;9.10;99.90;;;;;;5068055;28;20181;-77
2022/04/11 07:24:07;;;;;;;3.55;3.25;;;9.30;99.90;;;;;;5069483;28;20177;-77
2022/04/11 07:27:04;;;;;;;10.68;3.95;;;9.40;99.90;;;;;;5070216;28;20169;-77
2022/04/11 07:29:42;;;;;;;6.93;4.07;;;9.60;99.90;;;;;;5067296;28;20204;-77
2022/04/11 07:32:16;;;;;;;4.20;3.47;;;9.70;99.90;;;;;;5068075;28;20219;-77
2022/04/11 07:34:45;;;;;;;4.00;3.30;;;9.80;99.90;;;;;;5071158;28;20228;-73
2022/04/11 07:37:13;;;;;;;5.53;3.75;;;9.90;99.90;;;;;;5069754;28;20598;-77
2022/04/11 07:39:45;;;;;;;3.90;2.97;;;10.00;99.90;;;;;;5069836;28;20216;-74
2022/04/11 07:42:12;;;;;;;5.32;3.30;;;10.20;99.90;;;;;;5071352;28;20272;-73
2022/04/11 07:44:51;;;;;;;3.70;2.80;;;10.30;99.90;;;;;;5071627;28;20342;-75
2022/04/11 07:47:17;;;;;;;5.72;4.00;;;10.40;99.90;;;;;;5071709;28;20189;-73
2022/04/11 07:49:55;;;;;;;5.43;3.53;;;10.60;99.90;;;;;;5071087;28;20228;-73
2022/04/11 07:52:38;;;;;;;3.58;3.20;;;10.70;99.90;;;;;;5071335;28;20203;-73
2022/04/11 07:55:15;;;;;;;4.72;3.22;;;10.80;99.90;;;;;;5065592;28;20311;-77
2022/04/11 07:57:42;;;;;;;5.63;3.95;;;11.00;99.90;;;;;;5070969;28;20234;-73
2022/04/11 08:00:10;;;;;;;4.38;3.97;;;11.10;99.90;;;;;;5072808;28;20611;-76
2022/04/11 08:02:37;;;;;;;3.70;2.90;;;11.20;99.90;;;;;;5069354;28;20185;-76
2022/04/11 08:05:07;;;;;;;6.60;3.85;;;11.30;99.90;;;;;;5069885;28;20729;-73
2022/04/11 08:07:36;;;;;;;5.47;3.60;;;11.40;99.90;;;;;;5070617;28;20545;-77
2022/04/11 08:10:04;;;;;;;6.75;5.97;;;11.60;99.90;;;;;;5068120;28;20351;-77
2022/04/11 08:12:33;;;;;;;4.80;3.55;;;11.70;99.90;;;;;;5080851;28;20649;-76
2022/04/11 08:15:03;;;;;;;3.50;3.20;;;11.90;99.90;;;;;;5072108;28;20233;-76
2022/04/11 08:17:31;;;;;;;3.90;3.13;;;12.10;99.90;;;;;;5065754;28;20220;-77
2022/04/11 08:20:00;;;;;;;4.60;2.92;;;12.20;99.90;;;;;;5062270;28;20211;-77
2022/04/11 08:22:29;;;;;;;4.83;3.40;;;12.40;99.90;;;;;;5068135;28;20654;-72
2022/04/11 08:24:54;;;;;;;3.93;3.30;;;12.50;99.90;;;;;;5068603;28;20498;-73
2022/04/11 08:27:25;;;;;;;16.67;8.47;;;12.60;99.90;;;;;;5068101;28;20267;-77
2022/04/11 08:30:03;;;;;;;9.03;4.93;;;12.70;99.90;;;;;;5064980;28;20441;-77
2022/04/11 08:32:40;;;;;;;5.20;3.40;;;12.80;99.90;;;;;;5064874;28;20803;-77
2022/04/11 08:35:08;;;;;;;3.60;3.30;;;13.00;99.90;;;;;;5065898;28;20497;-73
2022/04/11 08:37:40;;;;;;;21.37;12.80;;;13.10;98.30;;;;;;5058966;28;20517;-73
2022/04/11 08:40:13;;;;;;;3.90;2.83;;;13.20;98.70;;;;;;5065533;28;20470;-76
2022/04/11 08:42:42;;;;;;;3.57;2.70;;;13.40;99.30;;;;;;5062504;28;21180;-75
2022/04/11 08:45:15;;;;;;;3.70;2.90;;;13.60;99.30;;;;;;5067504;28;20468;-72
2022/04/11 08:47:42;;;;;;;2.80;2.00;;;14.00;99.90;;;;;;5059709;28;20445;-72
2022/04/11 08:50:09;;;;;;;2.87;2.67;;;14.80;96.40;;;;;;5056693;28;20465;-72
2022/04/11 08:53:29;;;;;;;3.77;2.50;;;15.70;94.60;;;;;;5067355;28;20421;-77
2022/04/11 08:56:01;;;;;;;1.80;1.60;;;16.80;94.10;;;;;;5066931;28;20561;-73
2022/04/11 09:01:26;;;;;;;2.03;1.90;;;18.30;90.90;;;;;;5210343;22;20476;-76
2022/04/11 09:03:52;;;;;;;4.93;2.70;;;18.60;91.60;;;;;;5071502;28;20795;-74
2022/04/11 09:06:20;;;;;;;2.00;1.80;;;18.80;83.30;;;;;;5110826;28;20800;-78
2022/04/11 09:08:54;;;;;;;3.43;2.07;;;19.00;76.40;;;;;;5098252;28;20833;-73
2022/04/11 09:11:35;;;;;;;1.67;1.57;;;19.30;74.10;;;;;;5092891;28;20830;-73
2022/04/11 09:14:10;;;;;;;2.20;2.00;;;19.50;70.50;;;;;;5092693;28;20461;-73
2022/04/11 09:16:55;;;;;;;3.57;2.30;;;19.60;68.30;;;;;;5092546;28;20506;-76
2022/04/11 09:19:23;;;;;;;2.73;1.77;;;19.30;66.60;;;;;;5097307;28;20534;-73
2022/04/11 09:21:50;;;;;;;1.70;1.60;;;19.00;66.60;;;;;;5101270;28;20419;-72
2022/04/11 09:24:22;;;;;;;11.10;5.90;;;18.70;66.50;;;;;;5096966;28;20452;-72
2022/04/11 09:26:57;;;;;;;2.53;2.33;;;18.30;66.70;;;;;;5106184;28;20421;-76
2022/04/11 09:29:27;;;;;;;2.40;2.20;;;17.90;67.30;;;;;;5094304;28;20545;-76
2022/04/11 09:32:03;;;;;;;8.33;6.03;;;17.60;67.90;;;;;;5092019;28;20423;-76
2022/04/11 09:34:30;;;;;;;3.77;2.90;;;17.30;68.10;;;;;;5091369;28;20518;-76
2022/04/11 09:37:01;;;;;;;4.57;4.10;;;17.10;68.70;;;;;;5092413;28;20952;-74
2022/04/11 09:39:44;;;;;;;2.67;2.30;;;17.00;69.70;;;;;;5093731;28;20467;-72
2022/04/11 09:42:11;;;;;;;2.70;2.50;;;16.80;69.50;;;;;;5087840;28;20839;-72
2022/04/11 09:44:43;;;;;;;2.10;1.90;;;16.60;69.60;;;;;;5102382;28;20487;-73
2022/04/11 09:47:23;;;;;;;2.40;1.67;;;16.40;70.00;;;;;;5103704;27;20429;-77
2022/04/11 09:49:53;;;;;;;3.67;2.93;;;16.20;69.80;;;;;;5104664;27;20543;-74
2022/04/11 09:52:36;;;;;;;1.90;1.80;;;16.10;69.40;;;;;;5102693;27;20922;-73
2022/04/11 09:55:03;;;;;;;2.60;2.40;;;15.90;70.50;;;;;;5091290;28;20576;-73
2022/04/11 09:57:36;;;;;;;3.13;2.80;;;15.90;70.10;;;;;;5094159;28;20408;-73
2022/04/11 10:00:04;;;;;;;2.60;1.87;;;16.00;70.50;;;;;;5092417;28;21017;-73
2022/04/11 10:02:48;;;;;;;1.93;1.83;;;16.20;71.80;;;;;;5089905;28;20893;-77
2022/04/11 10:05:21;;;;;;;3.00;1.57;;;16.30;67.50;;;;;;5094585;28;20455;-77
2022/04/11 10:07:52;;;;;;;2.07;1.87;;;16.30;66.40;;;;;;5093032;28;20408;-73
2022/04/11 10:10:24;;;;;;;1.43;1.30;;;16.20;67.60;;;;;;5109314;28;20483;-73
2022/04/11 10:13:04;;;;;;;3.13;1.53;;;16.10;67.30;;;;;;5094447;28;20420;-73
2022/04/11 10:16:05;;;;;;;4.00;1.60;;;15.90;67.80;;;;;;5090818;28;20487;-73
2022/04/11 10:18:52;;;;;;;1.90;1.60;;;15.70;67.70;;;;;;5091510;28;20592;-73
2022/04/11 10:21:22;;;;;;;1.60;1.50;;;15.40;68.40;;;;;;5092689;28;20428;-73
2022/04/11 10:24:13;;;;;;;1.60;1.50;;;15.40;69.80;;;;;;5102223;27;20420;-73
2022/04/11 10:26:55;;;;;;;3.27;1.83;;;15.40;71.20;;;;;;5099539;27;20781;-77
2022/04/11 10:29:41;;;;;;;3.90;1.50;;;15.60;69.00;;;;;;5096050;28;20466;-76
2022/04/11 10:32:16;;;;;;;2.40;1.60;;;15.80;67.80;;;;;;5084843;28;20455;-76
2022/04/11 10:34:51;;;;;;;3.90;2.73;;;15.70;67.80;;;;;;5096801;27;20525;-73
2022/04/11 10:37:20;;;;;;;5.13;3.20;;;15.60;67.80;;;;;;5119619;27;20431;-77
2022/04/11 10:39:50;;;;;;;3.43;2.23;;;15.40;68.00;;;;;;5090651;27;20460;-76
2022/04/11 10:42:25;;;;;;;2.80;2.00;;;15.30;68.80;;;;;;5090163;27;20460;-73
2022/04/11 10:44:59;;;;;;;5.03;2.63;;;15.20;69.20;;;;;;5094978;27;20471;-73
2022/04/11 10:47:31;;;;;;;2.30;1.70;;;15.00;69.00;;;;;;5092760;28;20970;-73
2022/04/11 10:50:04;;;;;;;1.90;1.40;;;15.00;70.10;;;;;;5108599;27;20452;-74
2022/04/11 10:53:10;;;;;;;1.50;1.40;;;15.00;70.20;;;;;;5095815;28;20434;-74
2022/04/11 10:56:03;;;;;;;1.53;1.43;;;15.10;68.50;;;;;;5113085;27;21049;-74
2022/04/11 10:58:50;;;;;;;1.67;1.57;;;15.10;69.90;;;;;;5093625;27;21169;-77
2022/04/11 11:01:50;;;;;;;1.63;1.50;;;15.00;70.50;;;;;;5090717;27;20876;-79
2022/04/11 11:04:33;;;;;;;1.67;1.57;;;15.00;71.30;;;;;;5089998;27;20451;-78
2022/04/11 11:07:26;;;;;;;1.53;1.43;;;15.00;70.40;;;;;;5095867;27;20794;-77
2022/04/11 11:10:00;;;;;;;1.17;1.07;;;15.00;70.40;;;;;;5094603;27;20447;-72
2022/04/11 11:12:29;;;;;;;1.20;1.10;;;15.00;70.30;;;;;;5095728;27;20412;-72
2022/04/11 11:14:59;;;;;;;2.03;1.80;;;14.90;70.80;;;;;;5097194;27;20483;-71
2022/04/11 11:18:00;;;;;;;1.70;1.37;;;14.90;69.60;;;;;;5096151;28;20511;-75
2022/04/11 11:21:02;;;;;;;1.70;1.60;;;14.90;71.00;;;;;;5088276;27;20465;-75
2022/04/11 11:23:31;;;;;;;1.53;1.43;;;14.70;71.30;;;;;;5076651;28;20910;-71
2022/04/11 11:26:12;;;;;;;1.70;1.53;;;14.60;71.80;;;;;;5091795;27;20502;-72
2022/04/11 11:28:42;;;;;;;2.53;2.30;;;14.50;73.00;;;;;;5099432;27;20420;-76
2022/04/11 11:31:08;;;;;;;3.40;1.63;;;14.40;72.90;;;;;;5089257;27;20458;-75
2022/04/11 11:33:36;;;;;;;1.43;1.30;;;14.50;69.80;;;;;;5098950;27;20470;-72
2022/04/11 11:36:02;;;;;;;1.80;1.30;;;14.60;69.30;;;;;;5098693;27;20452;-75
2022/04/11 11:38:30;;;;;;;1.83;1.50;;;14.60;69.10;;;;;;5094246;28;20424;-74
2022/04/11 11:41:00;;;;;;;2.83;1.37;;;14.70;69.80;;;;;;5089105;28;20491;-71
2022/04/11 11:43:28;;;;;;;3.10;1.10;;;14.70;70.10;;;;;;5103894;27;20844;-75
2022/04/11 11:46:07;;;;;;;3.00;1.43;;;14.80;70.50;;;;;;5096902;27;20451;-76
2022/04/11 11:48:41;;;;;;;2.53;2.20;;;14.90;67.60;;;;;;5099074;27;20770;-76
2022/04/11 11:51:17;;;;;;;2.97;2.20;;;15.10;68.80;;;;;;5090492;28;20463;-76
2022/04/11 11:53:52;;;;;;;2.70;2.50;;;15.20;69.40;;;;;;5083449;27;20487;-76
2022/04/11 11:56:23;;;;;;;4.40;2.57;;;15.30;69.80;;;;;;5090858;28;20796;-76
2022/04/11 11:59:02;;;;;;;2.70;2.50;;;15.30;68.80;;;;;;5079436;28;20429;-76
2022/04/11 12:01:37;;;;;;;4.07;3.17;;;15.30;68.00;;;;;;5065574;28;20461;-76
2022/04/11 12:04:18;;;;;;;3.43;2.97;;;15.30;69.00;;;;;;5050084;28;20746;-72
2022/04/11 12:06:45;;;;;;;2.40;2.20;;;15.30;70.10;;;;;;5061528;28;20792;-72
2022/04/11 12:09:11;;;;;;;2.57;2.37;;;15.50;69.00;;;;;;5082967;28;20453;-73
2022/04/11 12:11:39;;;;;;;3.60;2.67;;;15.60;71.10;;;;;;5073132;28;20965;-72
2022/04/11 12:14:10;;;;;;;2.43;2.23;;;15.80;71.20;;;;;;5082286;28;20487;-72
2022/04/11 12:17:09;;;;;;;3.87;2.37;;;15.90;69.70;;;;;;5085853;28;20443;-76
2022/04/11 12:19:39;;;;;;;2.20;2.10;;;16.00;70.50;;;;;;5053721;28;20476;-76
2022/04/11 12:22:16;;;;;;;2.63;2.43;;;16.10;70.00;;;;;;5076871;28;20507;-72
2022/04/11 12:24:48;;;;;;;2.60;2.40;;;16.00;68.60;;;;;;5078652;28;20522;-77
2022/04/11 12:27:24;;;;;;;2.60;2.40;;;16.00;68.60;;;;;;5080767;28;20438;-77
2022/04/11 12:29:54;;;;;;;2.37;2.00;;;15.90;68.40;;;;;;5081574;28;20460;-76
2022/04/11 12:32:21;;;;;;;2.70;2.30;;;15.70;69.00;;;;;;5073593;28;20503;-72
2022/04/11 12:34:54;;;;;;;3.80;3.10;;;15.60;70.10;;;;;;5090685;28;20475;-76
2022/04/11 12:37:28;;;;;;;3.50;3.27;;;15.60;71.30;;;;;;5073890;28;20435;-76
2022/04/11 12:39:59;;;;;;;3.13;2.87;;;15.50;70.80;;;;;;5073187;28;20448;-72
2022/04/11 12:42:36;;;;;;;3.60;3.30;;;15.40;70.00;;;;;;5084377;28;20458;-75
2022/04/11 12:45:07;;;;;;;3.43;3.17;;;15.20;72.60;;;;;;5086869;28;20473;-72
2022/04/11 12:47:53;;;;;;;2.90;2.60;;;15.10;72.90;;;;;;5062890;28;20850;-76
2022/04/11 12:50:23;;;;;;;5.07;3.27;;;15.00;73.20;;;;;;5087994;28;20898;-74
2022/04/11 12:52:49;;;;;;;4.33;3.00;;;14.80;73.60;;;;;;5082353;28;20813;-72
2022/04/11 12:55:32;;;;;;;3.73;3.10;;;14.70;72.30;;;;;;5078658;28;20484;-77
2022/04/11 12:58:13;;;;;;;3.90;3.27;;;14.60;73.80;;;;;;5082638;28;20410;-76
2022/04/11 13:00:42;;;;;;;8.23;4.37;;;14.40;75.40;;;;;;5079710;28;20488;-76
2022/04/11 13:03:20;;;;;;;5.23;4.47;;;14.30;81.70;;;;;;5085298;28;20420;-77
2022/04/11 13:05:48;;;;;;;4.67;4.27;;;14.20;85.10;;;;;;5075721;28;20510;-73
2022/04/11 13:08:14;;;;;;;4.80;4.03;;;14.10;87.20;;;;;;5102159;28;20412;-73
2022/04/11 13:10:42;;;;;;;4.33;3.93;;;14.10;85.60;;;;;;5086585;28;20456;-76
2022/04/11 13:13:09;;;;;;;4.20;3.70;;;14.10;85.10;;;;;;5091983;28;20267;-73
2022/04/11 13:19:02;;;;;;;6.97;3.90;;;14.10;84.60;;;;;;5095190;28;20416;-77
2022/04/11 13:21:44;;;;;;;4.30;3.80;;;14.30;82.80;;;;;;5076971;28;20755;-77
2022/04/11 13:24:11;;;;;;;3.60;3.30;;;14.30;82.10;;;;;;5085646;28;20513;-73